sensor_id;sensor_type;location;lat;lon;timestamp;P1;durP1;ratioP1;P2;durP2;ratioP2
26536;SDS011;14204;51.262;5.488;2023-06-22T00:00:49;4.03;;;3.60;;
26536;SDS011;14204;51.262;5.488;2023-06-22T00:03:17;3.13;;;2.80;;
26536;SDS011;14204;51.262;5.488;2023-06-22T00:05:43;3.85;;;3.50;;
26536;SDS011;14204;51.262;5.488;2023-06-22T00:08:09;4.32;;;3.90;;
26536;SDS011;14204;51.262;5.488;2023-06-22T00:10:35;4.50;;;3.88;;
26536;SDS011;14204;51.262;5.488;2023-06-22T00:13:00;3.53;;;3.28;;
26536;SDS011;14204;51.262;5.488;2023-06-22T00:15:26;3.85;;;3.42;;
26536;SDS011;14204;51.262;5.488;2023-06-22T00:17:52;6.22;;;3.65;;
26536;SDS011;14204;51.262;5.488;2023-06-22T00:20:18;4.47;;;4.07;;
26536;SDS011;14204;51.262;5.488;2023-06-22T00:22:44;3.90;;;3.40;;
26536;SDS011;14204;51.262;5.488;2023-06-22T00:25:10;4.50;;;3.63;;
26536;SDS011;14204;51.262;5.488;2023-06-22T00:27:36;4.15;;;3.80;;
26536;SDS011;14204;51.262;5.488;2023-06-22T00:30:02;5.22;;;3.53;;
26536;SDS011;14204;51.262;5.488;2023-06-22T00:32:28;4.53;;;3.30;;
26536;SDS011;14204;51.262;5.488;2023-06-22T00:34:54;4.07;;;3.65;;
26536;SDS011;14204;51.262;5.488;2023-06-22T00:37:20;4.05;;;3.75;;
26536;SDS011;14204;51.262;5.488;2023-06-22T00:39:50;4.10;;;3.70;;
26536;SDS011;14204;51.262;5.488;2023-06-22T00:42:16;4.65;;;3.85;;
26536;SDS011;14204;51.262;5.488;2023-06-22T00:44:42;4.78;;;3.88;;
26536;SDS011;14204;51.262;5.488;2023-06-22T00:47:10;5.07;;;3.83;;
26536;SDS011;14204;51.262;5.488;2023-06-22T00:49:37;4.05;;;3.70;;
26536;SDS011;14204;51.262;5.488;2023-06-22T00:52:04;4.78;;;3.40;;
26536;SDS011;14204;51.262;5.488;2023-06-22T00:54:34;4.80;;;3.92;;
26536;SDS011;14204;51.262;5.488;2023-06-22T00:57:01;4.07;;;3.60;;
26536;SDS011;14204;51.262;5.488;2023-06-22T00:59:27;7.00;;;4.13;;
26536;SDS011;14204;51.262;5.488;2023-06-22T01:01:54;7.78;;;4.13;;
26536;SDS011;14204;51.262;5.488;2023-06-22T01:04:20;7.15;;;4.30;;
26536;SDS011;14204;51.262;5.488;2023-06-22T01:06:54;5.05;;;3.95;;
26536;SDS011;14204;51.262;5.488;2023-06-22T01:09:31;4.78;;;3.95;;
26536;SDS011;14204;51.262;5.488;2023-06-22T01:12:01;5.55;;;4.32;;
26536;SDS011;14204;51.262;5.488;2023-06-22T01:17:08;10.15;;;4.88;;
26536;SDS011;14204;51.262;5.488;2023-06-22T01:19:50;7.72;;;4.35;;
26536;SDS011;14204;51.262;5.488;2023-06-22T01:22:26;6.00;;;4.75;;
26536;SDS011;14204;51.262;5.488;2023-06-22T01:25:57;6.57;;;4.07;;
26536;SDS011;14204;51.262;5.488;2023-06-22T01:30:45;5.35;;;4.40;;
26536;SDS011;14204;51.262;5.488;2023-06-22T01:33:13;5.22;;;4.72;;
26536;SDS011;14204;51.262;5.488;2023-06-22T01:35:40;8.07;;;4.45;;
26536;SDS011;14204;51.262;5.488;2023-06-22T01:38:07;6.68;;;4.93;;
26536;SDS011;14204;51.262;5.488;2023-06-22T01:40:34;5.40;;;4.38;;
26536;SDS011;14204;51.262;5.488;2023-06-22T01:43:01;6.28;;;5.32;;
26536;SDS011;14204;51.262;5.488;2023-06-22T01:45:28;6.90;;;5.25;;
26536;SDS011;14204;51.262;5.488;2023-06-22T01:47:54;8.13;;;6.78;;
26536;SDS011;14204;51.262;5.488;2023-06-22T01:50:20;8.63;;;6.53;;
26536;SDS011;14204;51.262;5.488;2023-06-22T01:52:46;6.93;;;6.25;;
26536;SDS011;14204;51.262;5.488;2023-06-22T01:55:12;7.63;;;6.47;;
26536;SDS011;14204;51.262;5.488;2023-06-22T01:57:38;7.68;;;6.40;;
26536;SDS011;14204;51.262;5.488;2023-06-22T02:00:05;10.35;;;7.00;;
26536;SDS011;14204;51.262;5.488;2023-06-22T02:06:01;8.13;;;7.32;;
26536;SDS011;14204;51.262;5.488;2023-06-22T02:08:28;9.50;;;8.10;;
26536;SDS011;14204;51.262;5.488;2023-06-22T02:10:57;12.85;;;7.85;;
26536;SDS011;14204;51.262;5.488;2023-06-22T02:13:25;10.45;;;8.10;;
26536;SDS011;14204;51.262;5.488;2023-06-22T02:15:51;9.43;;;8.40;;
26536;SDS011;14204;51.262;5.488;2023-06-22T02:18:17;10.10;;;8.60;;
26536;SDS011;14204;51.262;5.488;2023-06-22T02:20:43;12.82;;;10.25;;
26536;SDS011;14204;51.262;5.488;2023-06-22T02:23:08;11.68;;;10.48;;
26536;SDS011;14204;51.262;5.488;2023-06-22T02:25:34;10.10;;;9.00;;
26536;SDS011;14204;51.262;5.488;2023-06-22T02:28:00;10.68;;;8.65;;
26536;SDS011;14204;51.262;5.488;2023-06-22T02:30:26;12.65;;;9.35;;
26536;SDS011;14204;51.262;5.488;2023-06-22T02:32:52;11.25;;;9.57;;
26536;SDS011;14204;51.262;5.488;2023-06-22T02:35:24;11.40;;;10.18;;
26536;SDS011;14204;51.262;5.488;2023-06-22T02:37:51;13.77;;;12.40;;
26536;SDS011;14204;51.262;5.488;2023-06-22T02:40:17;13.07;;;10.95;;
26536;SDS011;14204;51.262;5.488;2023-06-22T02:42:42;13.00;;;10.93;;
26536;SDS011;14204;51.262;5.488;2023-06-22T02:45:08;14.70;;;12.60;;
26536;SDS011;14204;51.262;5.488;2023-06-22T02:47:34;16.70;;;11.57;;
26536;SDS011;14204;51.262;5.488;2023-06-22T02:50:00;15.13;;;9.90;;
26536;SDS011;14204;51.262;5.488;2023-06-22T02:52:26;14.73;;;10.10;;
26536;SDS011;14204;51.262;5.488;2023-06-22T02:54:52;12.73;;;10.73;;
26536;SDS011;14204;51.262;5.488;2023-06-22T02:57:17;14.60;;;11.65;;
26536;SDS011;14204;51.262;5.488;2023-06-22T02:59:43;11.68;;;10.48;;
26536;SDS011;14204;51.262;5.488;2023-06-22T03:02:09;12.05;;;9.73;;
26536;SDS011;14204;51.262;5.488;2023-06-22T03:04:37;13.38;;;9.88;;
26536;SDS011;14204;51.262;5.488;2023-06-22T03:07:03;18.40;;;13.15;;
26536;SDS011;14204;51.262;5.488;2023-06-22T03:09:28;11.48;;;9.55;;
26536;SDS011;14204;51.262;5.488;2023-06-22T03:11:54;13.82;;;11.25;;
26536;SDS011;14204;51.262;5.488;2023-06-22T03:14:20;17.77;;;12.75;;
26536;SDS011;14204;51.262;5.488;2023-06-22T03:16:46;16.67;;;12.52;;
26536;SDS011;14204;51.262;5.488;2023-06-22T03:19:12;16.58;;;14.38;;
26536;SDS011;14204;51.262;5.488;2023-06-22T03:21:38;18.70;;;15.00;;
26536;SDS011;14204;51.262;5.488;2023-06-22T03:24:04;18.40;;;14.20;;
26536;SDS011;14204;51.262;5.488;2023-06-22T03:26:31;22.92;;;15.77;;
26536;SDS011;14204;51.262;5.488;2023-06-22T03:28:57;21.27;;;16.65;;
26536;SDS011;14204;51.262;5.488;2023-06-22T03:31:23;20.15;;;16.13;;
26536;SDS011;14204;51.262;5.488;2023-06-22T03:33:49;19.30;;;16.38;;
26536;SDS011;14204;51.262;5.488;2023-06-22T03:36:15;20.30;;;15.95;;
26536;SDS011;14204;51.262;5.488;2023-06-22T03:38:45;21.63;;;16.30;;
26536;SDS011;14204;51.262;5.488;2023-06-22T03:41:11;22.70;;;17.42;;
26536;SDS011;14204;51.262;5.488;2023-06-22T03:43:37;20.55;;;17.67;;
26536;SDS011;14204;51.262;5.488;2023-06-22T03:46:03;21.02;;;17.25;;
26536;SDS011;14204;51.262;5.488;2023-06-22T03:48:28;21.95;;;16.23;;
26536;SDS011;14204;51.262;5.488;2023-06-22T03:50:54;21.88;;;18.27;;
26536;SDS011;14204;51.262;5.488;2023-06-22T03:53:20;22.10;;;17.17;;
26536;SDS011;14204;51.262;5.488;2023-06-22T03:55:49;22.33;;;16.58;;
26536;SDS011;14204;51.262;5.488;2023-06-22T03:58:16;23.65;;;17.63;;
26536;SDS011;14204;51.262;5.488;2023-06-22T04:00:46;20.38;;;16.55;;
26536;SDS011;14204;51.262;5.488;2023-06-22T04:03:12;20.70;;;17.70;;
26536;SDS011;14204;51.262;5.488;2023-06-22T04:05:39;21.23;;;18.88;;
26536;SDS011;14204;51.262;5.488;2023-06-22T04:08:05;23.75;;;18.27;;
26536;SDS011;14204;51.262;5.488;2023-06-22T04:10:31;23.52;;;18.75;;
26536;SDS011;14204;51.262;5.488;2023-06-22T04:12:57;20.13;;;17.98;;
26536;SDS011;14204;51.262;5.488;2023-06-22T04:15:22;20.02;;;17.42;;
26536;SDS011;14204;51.262;5.488;2023-06-22T04:17:48;21.73;;;19.30;;
26536;SDS011;14204;51.262;5.488;2023-06-22T04:20:14;23.20;;;19.02;;
26536;SDS011;14204;51.262;5.488;2023-06-22T04:22:39;22.60;;;19.02;;
26536;SDS011;14204;51.262;5.488;2023-06-22T04:25:05;22.10;;;19.10;;
26536;SDS011;14204;51.262;5.488;2023-06-22T04:27:32;23.50;;;20.48;;
26536;SDS011;14204;51.262;5.488;2023-06-22T04:30:05;24.60;;;19.75;;
26536;SDS011;14204;51.262;5.488;2023-06-22T04:32:31;22.45;;;18.13;;
26536;SDS011;14204;51.262;5.488;2023-06-22T04:34:58;21.08;;;17.67;;
26536;SDS011;14204;51.262;5.488;2023-06-22T04:37:25;21.92;;;19.05;;
26536;SDS011;14204;51.262;5.488;2023-06-22T04:39:51;24.77;;;19.02;;
26536;SDS011;14204;51.262;5.488;2023-06-22T04:42:18;23.75;;;20.20;;
26536;SDS011;14204;51.262;5.488;2023-06-22T04:44:43;23.95;;;20.05;;
26536;SDS011;14204;51.262;5.488;2023-06-22T04:47:09;25.25;;;20.38;;
26536;SDS011;14204;51.262;5.488;2023-06-22T04:49:35;22.80;;;19.70;;
26536;SDS011;14204;51.262;5.488;2023-06-22T04:52:05;23.55;;;18.65;;
26536;SDS011;14204;51.262;5.488;2023-06-22T04:54:32;26.02;;;17.92;;
26536;SDS011;14204;51.262;5.488;2023-06-22T04:56:59;23.48;;;17.92;;
26536;SDS011;14204;51.262;5.488;2023-06-22T04:59:27;19.33;;;16.38;;
26536;SDS011;14204;51.262;5.488;2023-06-22T05:01:55;21.90;;;18.05;;
26536;SDS011;14204;51.262;5.488;2023-06-22T05:04:22;22.80;;;17.85;;
26536;SDS011;14204;51.262;5.488;2023-06-22T05:06:51;22.00;;;18.83;;
26536;SDS011;14204;51.262;5.488;2023-06-22T05:09:17;19.25;;;17.17;;
26536;SDS011;14204;51.262;5.488;2023-06-22T05:11:43;19.92;;;16.70;;
26536;SDS011;14204;51.262;5.488;2023-06-22T05:14:10;18.92;;;17.08;;
26536;SDS011;14204;51.262;5.488;2023-06-22T05:16:40;19.58;;;17.42;;
26536;SDS011;14204;51.262;5.488;2023-06-22T05:19:07;22.83;;;17.92;;
26536;SDS011;14204;51.262;5.488;2023-06-22T05:21:33;18.52;;;16.27;;
26536;SDS011;14204;51.262;5.488;2023-06-22T05:23:58;19.48;;;17.35;;
26536;SDS011;14204;51.262;5.488;2023-06-22T05:26:28;20.45;;;16.60;;
26536;SDS011;14204;51.262;5.488;2023-06-22T05:28:55;21.08;;;16.70;;
26536;SDS011;14204;51.262;5.488;2023-06-22T05:31:21;36.03;;;17.50;;
26536;SDS011;14204;51.262;5.488;2023-06-22T05:33:48;21.60;;;17.63;;
26536;SDS011;14204;51.262;5.488;2023-06-22T05:36:16;18.80;;;14.95;;
26536;SDS011;14204;51.262;5.488;2023-06-22T05:38:42;17.25;;;15.35;;
26536;SDS011;14204;51.262;5.488;2023-06-22T05:41:08;16.70;;;14.93;;
26536;SDS011;14204;51.262;5.488;2023-06-22T05:43:33;18.40;;;14.65;;
26536;SDS011;14204;51.262;5.488;2023-06-22T05:46:00;17.52;;;15.15;;
26536;SDS011;14204;51.262;5.488;2023-06-22T05:48:26;19.95;;;16.70;;
26536;SDS011;14204;51.262;5.488;2023-06-22T05:50:52;19.88;;;16.25;;
26536;SDS011;14204;51.262;5.488;2023-06-22T05:53:18;14.60;;;12.98;;
26536;SDS011;14204;51.262;5.488;2023-06-22T05:55:44;19.77;;;15.70;;
26536;SDS011;14204;51.262;5.488;2023-06-22T05:58:10;20.25;;;15.25;;
26536;SDS011;14204;51.262;5.488;2023-06-22T06:00:36;19.35;;;16.73;;
26536;SDS011;14204;51.262;5.488;2023-06-22T06:03:02;19.33;;;17.35;;
26536;SDS011;14204;51.262;5.488;2023-06-22T06:05:29;18.55;;;15.95;;
26536;SDS011;14204;51.262;5.488;2023-06-22T06:07:55;20.50;;;17.65;;
26536;SDS011;14204;51.262;5.488;2023-06-22T06:10:21;21.40;;;18.48;;
26536;SDS011;14204;51.262;5.488;2023-06-22T06:12:47;20.27;;;17.73;;
26536;SDS011;14204;51.262;5.488;2023-06-22T06:15:12;20.42;;;16.67;;
26536;SDS011;14204;51.262;5.488;2023-06-22T06:17:48;21.50;;;15.63;;
26536;SDS011;14204;51.262;5.488;2023-06-22T06:20:14;23.65;;;18.30;;
26536;SDS011;14204;51.262;5.488;2023-06-22T06:22:41;26.20;;;19.45;;
26536;SDS011;14204;51.262;5.488;2023-06-22T06:25:08;23.08;;;19.55;;
26536;SDS011;14204;51.262;5.488;2023-06-22T06:27:34;23.98;;;20.17;;
26536;SDS011;14204;51.262;5.488;2023-06-22T06:29:59;22.33;;;19.33;;
26536;SDS011;14204;51.262;5.488;2023-06-22T06:32:25;22.65;;;19.02;;
26536;SDS011;14204;51.262;5.488;2023-06-22T06:34:51;17.55;;;15.75;;
26536;SDS011;14204;51.262;5.488;2023-06-22T06:37:17;21.63;;;17.05;;
26536;SDS011;14204;51.262;5.488;2023-06-22T06:39:43;19.25;;;16.58;;
26536;SDS011;14204;51.262;5.488;2023-06-22T06:42:09;21.02;;;17.33;;
26536;SDS011;14204;51.262;5.488;2023-06-22T06:44:36;18.33;;;15.27;;
26536;SDS011;14204;51.262;5.488;2023-06-22T06:47:03;20.73;;;17.27;;
26536;SDS011;14204;51.262;5.488;2023-06-22T06:49:29;19.45;;;17.45;;
26536;SDS011;14204;51.262;5.488;2023-06-22T06:51:55;22.98;;;19.23;;
26536;SDS011;14204;51.262;5.488;2023-06-22T06:54:21;21.63;;;18.77;;
26536;SDS011;14204;51.262;5.488;2023-06-22T06:56:47;21.50;;;18.25;;
26536;SDS011;14204;51.262;5.488;2023-06-22T06:59:13;22.83;;;19.88;;
26536;SDS011;14204;51.262;5.488;2023-06-22T07:01:40;24.10;;;19.73;;
26536;SDS011;14204;51.262;5.488;2023-06-22T07:04:07;23.50;;;20.05;;
26536;SDS011;14204;51.262;5.488;2023-06-22T07:06:32;22.15;;;19.75;;
26536;SDS011;14204;51.262;5.488;2023-06-22T07:08:59;23.58;;;19.25;;
26536;SDS011;14204;51.262;5.488;2023-06-22T07:11:25;21.95;;;18.88;;
26536;SDS011;14204;51.262;5.488;2023-06-22T07:13:50;21.30;;;19.02;;
26536;SDS011;14204;51.262;5.488;2023-06-22T07:16:16;20.58;;;17.45;;
26536;SDS011;14204;51.262;5.488;2023-06-22T07:18:42;27.27;;;19.08;;
26536;SDS011;14204;51.262;5.488;2023-06-22T07:21:07;20.48;;;17.60;;
26536;SDS011;14204;51.262;5.488;2023-06-22T07:23:34;19.15;;;16.83;;
26536;SDS011;14204;51.262;5.488;2023-06-22T07:26:00;21.67;;;17.35;;
26536;SDS011;14204;51.262;5.488;2023-06-22T07:28:31;24.67;;;20.08;;
26536;SDS011;14204;51.262;5.488;2023-06-22T07:31:02;24.05;;;18.15;;
26536;SDS011;14204;51.262;5.488;2023-06-22T07:33:28;23.20;;;19.42;;
26536;SDS011;14204;51.262;5.488;2023-06-22T07:35:54;22.40;;;18.77;;
26536;SDS011;14204;51.262;5.488;2023-06-22T07:38:20;21.77;;;18.83;;
26536;SDS011;14204;51.262;5.488;2023-06-22T07:40:47;23.02;;;20.60;;
26536;SDS011;14204;51.262;5.488;2023-06-22T07:43:12;22.60;;;19.90;;
26536;SDS011;14204;51.262;5.488;2023-06-22T07:45:38;23.90;;;20.50;;
26536;SDS011;14204;51.262;5.488;2023-06-22T07:48:06;21.90;;;19.77;;
26536;SDS011;14204;51.262;5.488;2023-06-22T07:50:32;26.30;;;21.92;;
26536;SDS011;14204;51.262;5.488;2023-06-22T07:52:58;21.42;;;19.23;;
26536;SDS011;14204;51.262;5.488;2023-06-22T07:55:23;23.75;;;19.42;;
26536;SDS011;14204;51.262;5.488;2023-06-22T07:57:49;24.85;;;20.85;;
26536;SDS011;14204;51.262;5.488;2023-06-22T08:00:17;24.83;;;19.77;;
26536;SDS011;14204;51.262;5.488;2023-06-22T08:02:44;21.95;;;19.75;;
26536;SDS011;14204;51.262;5.488;2023-06-22T08:05:11;23.77;;;18.55;;
26536;SDS011;14204;51.262;5.488;2023-06-22T08:07:37;25.70;;;18.00;;
26536;SDS011;14204;51.262;5.488;2023-06-22T08:10:04;19.13;;;17.13;;
26536;SDS011;14204;51.262;5.488;2023-06-22T08:12:30;20.27;;;16.88;;
26536;SDS011;14204;51.262;5.488;2023-06-22T08:14:56;21.42;;;15.88;;
26536;SDS011;14204;51.262;5.488;2023-06-22T08:17:23;17.80;;;15.52;;
26536;SDS011;14204;51.262;5.488;2023-06-22T08:19:49;17.35;;;15.45;;
26536;SDS011;14204;51.262;5.488;2023-06-22T08:22:15;20.02;;;15.13;;
26536;SDS011;14204;51.262;5.488;2023-06-22T08:24:41;21.27;;;17.02;;
26536;SDS011;14204;51.262;5.488;2023-06-22T08:27:07;20.20;;;16.45;;
26536;SDS011;14204;51.262;5.488;2023-06-22T08:29:34;21.95;;;17.73;;
26536;SDS011;14204;51.262;5.488;2023-06-22T08:32:02;24.23;;;18.08;;
26536;SDS011;14204;51.262;5.488;2023-06-22T08:34:28;25.48;;;19.95;;
26536;SDS011;14204;51.262;5.488;2023-06-22T08:36:54;21.67;;;19.33;;
26536;SDS011;14204;51.262;5.488;2023-06-22T08:39:19;23.95;;;18.75;;
26536;SDS011;14204;51.262;5.488;2023-06-22T08:41:46;23.42;;;18.60;;
26536;SDS011;14204;51.262;5.488;2023-06-22T08:44:12;23.85;;;19.65;;
26536;SDS011;14204;51.262;5.488;2023-06-22T08:46:38;22.85;;;17.73;;
26536;SDS011;14204;51.262;5.488;2023-06-22T08:49:05;27.65;;;18.60;;
26536;SDS011;14204;51.262;5.488;2023-06-22T08:51:31;21.65;;;18.75;;
26536;SDS011;14204;51.262;5.488;2023-06-22T08:53:57;26.92;;;21.45;;
26536;SDS011;14204;51.262;5.488;2023-06-22T08:56:23;24.40;;;21.63;;
26536;SDS011;14204;51.262;5.488;2023-06-22T08:58:49;28.70;;;25.05;;
26536;SDS011;14204;51.262;5.488;2023-06-22T09:01:14;26.52;;;23.02;;
26536;SDS011;14204;51.262;5.488;2023-06-22T09:03:40;27.05;;;22.15;;
26536;SDS011;14204;51.262;5.488;2023-06-22T09:06:06;24.30;;;21.60;;
26536;SDS011;14204;51.262;5.488;2023-06-22T09:08:34;25.65;;;22.15;;
26536;SDS011;14204;51.262;5.488;2023-06-22T09:11:00;26.90;;;23.80;;
26536;SDS011;14204;51.262;5.488;2023-06-22T09:13:26;29.63;;;23.65;;
26536;SDS011;14204;51.262;5.488;2023-06-22T09:15:53;26.95;;;22.92;;
26536;SDS011;14204;51.262;5.488;2023-06-22T09:18:18;24.40;;;20.73;;
26536;SDS011;14204;51.262;5.488;2023-06-22T09:20:44;26.33;;;23.52;;
26536;SDS011;14204;51.262;5.488;2023-06-22T09:23:10;26.77;;;23.95;;
26536;SDS011;14204;51.262;5.488;2023-06-22T09:25:36;27.17;;;21.65;;
26536;SDS011;14204;51.262;5.488;2023-06-22T09:28:02;26.92;;;23.80;;
26536;SDS011;14204;51.262;5.488;2023-06-22T09:30:27;28.40;;;25.33;;
26536;SDS011;14204;51.262;5.488;2023-06-22T09:32:53;28.20;;;24.48;;
26536;SDS011;14204;51.262;5.488;2023-06-22T09:35:19;29.33;;;24.08;;
26536;SDS011;14204;51.262;5.488;2023-06-22T09:37:45;31.02;;;24.33;;
26536;SDS011;14204;51.262;5.488;2023-06-22T09:40:11;27.33;;;23.65;;
26536;SDS011;14204;51.262;5.488;2023-06-22T09:42:38;26.83;;;23.90;;
26536;SDS011;14204;51.262;5.488;2023-06-22T09:45:04;28.63;;;25.35;;
26536;SDS011;14204;51.262;5.488;2023-06-22T09:47:30;30.58;;;25.88;;
26536;SDS011;14204;51.262;5.488;2023-06-22T09:49:56;30.38;;;26.52;;
26536;SDS011;14204;51.262;5.488;2023-06-22T09:52:24;32.85;;;27.92;;
26536;SDS011;14204;51.262;5.488;2023-06-22T09:54:50;26.92;;;23.80;;
26536;SDS011;14204;51.262;5.488;2023-06-22T09:57:16;26.67;;;23.15;;
26536;SDS011;14204;51.262;5.488;2023-06-22T09:59:42;26.23;;;23.33;;
26536;SDS011;14204;51.262;5.488;2023-06-22T10:02:07;28.23;;;24.58;;
26536;SDS011;14204;51.262;5.488;2023-06-22T10:04:33;28.20;;;22.63;;
26536;SDS011;14204;51.262;5.488;2023-06-22T10:07:00;28.27;;;24.02;;
26536;SDS011;14204;51.262;5.488;2023-06-22T10:09:26;27.88;;;24.20;;
26536;SDS011;14204;51.262;5.488;2023-06-22T10:11:52;29.38;;;24.50;;
26536;SDS011;14204;51.262;5.488;2023-06-22T10:14:17;29.73;;;25.00;;
26536;SDS011;14204;51.262;5.488;2023-06-22T10:16:44;28.50;;;24.38;;
26536;SDS011;14204;51.262;5.488;2023-06-22T10:19:10;29.17;;;26.00;;
26536;SDS011;14204;51.262;5.488;2023-06-22T10:21:35;30.92;;;25.38;;
26536;SDS011;14204;51.262;5.488;2023-06-22T10:24:01;26.58;;;23.77;;
26536;SDS011;14204;51.262;5.488;2023-06-22T10:26:31;29.20;;;25.35;;
26536;SDS011;14204;51.262;5.488;2023-06-22T10:28:58;28.23;;;24.75;;
26536;SDS011;14204;51.262;5.488;2023-06-22T10:31:25;28.52;;;24.38;;
26536;SDS011;14204;51.262;5.488;2023-06-22T10:33:50;30.73;;;26.52;;
26536;SDS011;14204;51.262;5.488;2023-06-22T10:36:16;36.65;;;27.50;;
26536;SDS011;14204;51.262;5.488;2023-06-22T10:38:42;37.72;;;29.65;;
26536;SDS011;14204;51.262;5.488;2023-06-22T10:41:07;36.92;;;31.98;;
26536;SDS011;14204;51.262;5.488;2023-06-22T10:43:33;40.10;;;31.65;;
26536;SDS011;14204;51.262;5.488;2023-06-22T10:45:59;45.53;;;36.53;;
26536;SDS011;14204;51.262;5.488;2023-06-22T10:48:24;46.03;;;37.33;;
26536;SDS011;14204;51.262;5.488;2023-06-22T10:50:50;41.67;;;37.13;;
26536;SDS011;14204;51.262;5.488;2023-06-22T10:53:16;45.58;;;37.50;;
26536;SDS011;14204;51.262;5.488;2023-06-22T10:55:41;49.70;;;38.55;;
26536;SDS011;14204;51.262;5.488;2023-06-22T10:58:07;48.95;;;40.85;;
26536;SDS011;14204;51.262;5.488;2023-06-22T11:00:32;53.22;;;42.60;;
26536;SDS011;14204;51.262;5.488;2023-06-22T11:02:58;48.80;;;41.08;;
26536;SDS011;14204;51.262;5.488;2023-06-22T11:05:24;49.15;;;42.65;;
26536;SDS011;14204;51.262;5.488;2023-06-22T11:07:49;53.45;;;43.72;;
26536;SDS011;14204;51.262;5.488;2023-06-22T11:10:15;49.33;;;41.15;;
26536;SDS011;14204;51.262;5.488;2023-06-22T11:12:41;53.53;;;42.17;;
26536;SDS011;14204;51.262;5.488;2023-06-22T11:15:08;64.95;;;48.50;;
26536;SDS011;14204;51.262;5.488;2023-06-22T11:17:34;51.10;;;40.88;;
26536;SDS011;14204;51.262;5.488;2023-06-22T11:20:00;58.08;;;40.83;;
26536;SDS011;14204;51.262;5.488;2023-06-22T11:22:26;65.93;;;48.58;;
26536;SDS011;14204;51.262;5.488;2023-06-22T11:24:52;56.97;;;44.83;;
26536;SDS011;14204;51.262;5.488;2023-06-22T11:27:18;74.70;;;51.55;;
26536;SDS011;14204;51.262;5.488;2023-06-22T11:29:43;54.22;;;44.20;;
26536;SDS011;14204;51.262;5.488;2023-06-22T11:32:09;54.75;;;46.35;;
26536;SDS011;14204;51.262;5.488;2023-06-22T11:34:35;52.72;;;44.65;;
26536;SDS011;14204;51.262;5.488;2023-06-22T11:37:00;56.53;;;45.13;;
26536;SDS011;14204;51.262;5.488;2023-06-22T11:39:26;55.15;;;44.45;;
26536;SDS011;14204;51.262;5.488;2023-06-22T11:41:52;57.80;;;45.33;;
26536;SDS011;14204;51.262;5.488;2023-06-22T11:44:18;58.38;;;50.28;;
26536;SDS011;14204;51.262;5.488;2023-06-22T11:46:43;52.33;;;46.50;;
26536;SDS011;14204;51.262;5.488;2023-06-22T11:49:09;47.63;;;40.25;;
26536;SDS011;14204;51.262;5.488;2023-06-22T11:51:35;59.00;;;49.88;;
26536;SDS011;14204;51.262;5.488;2023-06-22T11:54:01;52.58;;;44.00;;
26536;SDS011;14204;51.262;5.488;2023-06-22T11:56:28;50.40;;;44.85;;
26536;SDS011;14204;51.262;5.488;2023-06-22T11:58:54;49.28;;;41.95;;
26536;SDS011;14204;51.262;5.488;2023-06-22T12:01:19;50.95;;;43.75;;
26536;SDS011;14204;51.262;5.488;2023-06-22T12:03:46;53.72;;;46.15;;
26536;SDS011;14204;51.262;5.488;2023-06-22T12:06:11;47.22;;;42.03;;
26536;SDS011;14204;51.262;5.488;2023-06-22T12:08:38;50.20;;;44.83;;
26536;SDS011;14204;51.262;5.488;2023-06-22T12:11:04;61.58;;;53.90;;
26536;SDS011;14204;51.262;5.488;2023-06-22T12:13:29;54.20;;;48.15;;
26536;SDS011;14204;51.262;5.488;2023-06-22T12:15:55;55.80;;;48.65;;
26536;SDS011;14204;51.262;5.488;2023-06-22T12:18:21;52.45;;;43.67;;
26536;SDS011;14204;51.262;5.488;2023-06-22T12:20:46;47.30;;;42.17;;
26536;SDS011;14204;51.262;5.488;2023-06-22T12:23:12;44.70;;;40.00;;
26536;SDS011;14204;51.262;5.488;2023-06-22T12:25:39;40.70;;;36.25;;
26536;SDS011;14204;51.262;5.488;2023-06-22T12:28:05;43.22;;;36.83;;
26536;SDS011;14204;51.262;5.488;2023-06-22T12:30:32;42.47;;;34.13;;
26536;SDS011;14204;51.262;5.488;2023-06-22T12:32:58;39.35;;;33.35;;
26536;SDS011;14204;51.262;5.488;2023-06-22T12:35:23;37.90;;;33.80;;
26536;SDS011;14204;51.262;5.488;2023-06-22T12:37:49;37.08;;;33.17;;
26536;SDS011;14204;51.262;5.488;2023-06-22T12:40:15;38.95;;;34.63;;
26536;SDS011;14204;51.262;5.488;2023-06-22T12:42:41;41.47;;;36.15;;
26536;SDS011;14204;51.262;5.488;2023-06-22T12:45:07;44.28;;;37.15;;
26536;SDS011;14204;51.262;5.488;2023-06-22T12:47:33;42.72;;;38.10;;
26536;SDS011;14204;51.262;5.488;2023-06-22T12:49:59;43.00;;;35.78;;
26536;SDS011;14204;51.262;5.488;2023-06-22T12:52:25;40.42;;;36.15;;
26536;SDS011;14204;51.262;5.488;2023-06-22T12:54:51;44.17;;;37.42;;
26536;SDS011;14204;51.262;5.488;2023-06-22T12:57:17;46.60;;;40.60;;
26536;SDS011;14204;51.262;5.488;2023-06-22T12:59:44;42.40;;;37.15;;
26536;SDS011;14204;51.262;5.488;2023-06-22T13:02:10;43.92;;;37.17;;
26536;SDS011;14204;51.262;5.488;2023-06-22T13:04:36;44.67;;;37.42;;
26536;SDS011;14204;51.262;5.488;2023-06-22T13:07:01;46.80;;;39.33;;
26536;SDS011;14204;51.262;5.488;2023-06-22T13:09:27;44.60;;;39.35;;
26536;SDS011;14204;51.262;5.488;2023-06-22T13:11:53;48.63;;;40.38;;
26536;SDS011;14204;51.262;5.488;2023-06-22T13:14:19;46.00;;;38.40;;
26536;SDS011;14204;51.262;5.488;2023-06-22T13:16:44;47.28;;;40.67;;
26536;SDS011;14204;51.262;5.488;2023-06-22T13:19:10;51.35;;;42.83;;
26536;SDS011;14204;51.262;5.488;2023-06-22T13:21:36;46.78;;;41.28;;
26536;SDS011;14204;51.262;5.488;2023-06-22T13:24:01;46.47;;;38.97;;
26536;SDS011;14204;51.262;5.488;2023-06-22T13:26:27;48.47;;;43.17;;
26536;SDS011;14204;51.262;5.488;2023-06-22T13:28:54;50.88;;;42.85;;
26536;SDS011;14204;51.262;5.488;2023-06-22T13:31:19;51.97;;;44.10;;
26536;SDS011;14204;51.262;5.488;2023-06-22T13:33:45;53.13;;;43.92;;
26536;SDS011;14204;51.262;5.488;2023-06-22T13:36:13;54.15;;;46.67;;
26536;SDS011;14204;51.262;5.488;2023-06-22T13:38:38;58.30;;;48.00;;
26536;SDS011;14204;51.262;5.488;2023-06-22T13:41:05;50.95;;;45.45;;
26536;SDS011;14204;51.262;5.488;2023-06-22T13:43:31;43.70;;;39.00;;
26536;SDS011;14204;51.262;5.488;2023-06-22T13:45:57;46.42;;;40.92;;
26536;SDS011;14204;51.262;5.488;2023-06-22T13:48:23;47.92;;;42.13;;
26536;SDS011;14204;51.262;5.488;2023-06-22T13:50:51;51.35;;;40.92;;
26536;SDS011;14204;51.262;5.488;2023-06-22T13:53:17;47.10;;;41.90;;
26536;SDS011;14204;51.262;5.488;2023-06-22T13:55:43;47.05;;;41.20;;
26536;SDS011;14204;51.262;5.488;2023-06-22T13:58:09;50.35;;;43.17;;
26536;SDS011;14204;51.262;5.488;2023-06-22T14:00:34;47.58;;;42.53;;
26536;SDS011;14204;51.262;5.488;2023-06-22T14:03:00;45.92;;;41.05;;
26536;SDS011;14204;51.262;5.488;2023-06-22T14:05:26;47.65;;;41.65;;
26536;SDS011;14204;51.262;5.488;2023-06-22T14:07:51;53.33;;;43.22;;
26536;SDS011;14204;51.262;5.488;2023-06-22T14:10:17;47.80;;;42.70;;
26536;SDS011;14204;51.262;5.488;2023-06-22T14:12:43;47.40;;;40.80;;
26536;SDS011;14204;51.262;5.488;2023-06-22T14:15:09;45.95;;;38.95;;
26536;SDS011;14204;51.262;5.488;2023-06-22T14:17:35;49.88;;;42.63;;
26536;SDS011;14204;51.262;5.488;2023-06-22T14:20:01;50.35;;;42.13;;
26536;SDS011;14204;51.262;5.488;2023-06-22T14:22:27;43.28;;;38.80;;
26536;SDS011;14204;51.262;5.488;2023-06-22T14:24:54;45.03;;;39.17;;
26536;SDS011;14204;51.262;5.488;2023-06-22T14:27:22;46.20;;;41.17;;
26536;SDS011;14204;51.262;5.488;2023-06-22T14:29:48;48.17;;;36.78;;